Date,TemperatureHighF,TemperatureAvgF,TemperatureLowF,DewpointHighF,DewpointAvgF,DewpointLowF,HumidityHigh,HumidityAvg,HumidityLow,PressureMaxIn,PressureMinIn,WindSpeedMaxMPH,WindSpeedAvgMPH,GustSpeedMaxMPH,PrecipitationSumIn
2013-1-1,79,79,79,74,74,74,84,84,84,29.99,29.99,15,15,0,0.00
2013-1-2,72,56,48,69,53,45,91,88,87,30.16,30.00,22,20,0,0.00
2013-1-6,54,54,54,50,50,50,88,88,88,30.18,30.18,22,22,0,0.00
2013-1-7,57,57,57,51,51,51,79,79,79,30.19,30.19,14,14,0,0.00
2013-1-8,70,70,70,67,67,67,91,91,91,29.96,29.96,31,31,0,0.00
2013-1-9,66,66,66,63,63,63,91,91,91,29.91,29.91,18,18,0,0.00
2013-1-12,79,76,73,74,73,71,91,87,84,29.97,29.94,16,15,0,0.00
2013-1-13,79,77,77,72,72,71,84,83,77,29.97,29.91,24,22,0,0.00
2013-1-14,81,75,73,70,66,65,75,74,71,30.14,30.12,14,13,0,0.00
2013-1-15,72,71,70,67,66,66,91,86,83,30.16,30.12,13,11,0,0.00
2013-1-16,64,53,48,62,51,45,90,88,87,29.97,29.94,22,14,0,0.00
2013-1-20,61,61,61,55,55,55,80,80,80,29.97,29.97,29,29,0,0.00
2013-1-21,55,54,54,45,43,43,68,67,67,29.94,29.88,24,23,0,0.00
2013-1-22,63,61,57,60,56,47,90,83,69,29.87,29.77,15,14,0,0.00
2013-1-23,64,63,59,62,60,55,90,89,80,29.68,29.59,40,33,0,0.00
2013-1-24,61,60,59,58,58,56,90,90,89,29.71,29.65,30,28,0,0.00
2013-1-25,64,62,61,62,59,58,90,90,90,29.94,29.59,38,25,0,0.00
2013-1-26,63,60,57,60,56,53,90,87,80,30.00,29.68,46,40,0,0.00
2013-1-27,59,56,54,53,47,46,80,72,61,30.18,30.09,25,22,0,0.00
2013-1-28,63,60,59,60,54,53,90,82,80,30.18,30.00,25,25,0,0.00
2013-1-29,64,62,61,62,60,58,90,90,90,30.21,29.88,28,24,0,0.00
2013-1-30,64,61,59,59,55,51,90,83,71,30.42,30.27,15,10,0,0.00
2013-1-31,63,63,63,57,57,57,80,80,80,30.36,30.36,8,8,0,0.00
2013-2-1,59,56,55,53,31,-100,88,73,80,30.39,30.12,23,14,0,0.00
2013-2-2,57,57,57,54,50,47,89,77,69,30.03,29.97,32,23,0,0.00
2013-2-3,55,54,52,41,37,34,58,54,47,30.27,30.03,37,29,0,0.00
2013-2-4,57,52,50,43,41,36,76,65,55,30.36,30.36,10,9,0,0.00
2013-2-5,57,56,54,51,45,39,79,67,57,30.30,30.15,15,13,0,0.00
2013-2-6,66,60,55,56,51,46,89,73,57,30.08,30.00,22,18,0,0.00
2013-2-7,55,54,54,43,41,37,67,61,49,30.18,30.12,29,25,0,0.00
2013-2-8,57,55,54,47,43,39,69,64,57,30.12,29.94,18,14,0,0.00
2013-2-9,55,53,52,45,44,41,77,70,66,30.18,29.94,23,20,0,0.00
2013-2-10,64,61,54,44,44,43,67,54,48,30.25,30.09,13,12,0,0.00
2013-2-13,54,54,54,50,50,50,88,88,88,29.85,29.85,28,28,0,0.00
2013-2-16,59,57,55,49,45,41,70,64,58,30.00,29.97,23,23,0,0.00
2013-2-17,55,55,54,45,44,43,68,68,67,30.02,29.97,17,12,0,0.00
2013-2-18,64,61,59,55,51,49,72,70,69,29.97,29.94,14,13,0,0.00
2013-2-19,59,57,55,53,50,45,80,75,68,29.91,29.88,10,10,0,0.00
2013-2-20,59,56,55,56,48,41,89,73,58,29.94,29.83,28,12,0,0.00
2013-2-21,61,61,61,58,58,58,90,90,90,29.56,29.56,24,24,0,0.00
2013-2-22,63,60,59,53,53,53,81,80,71,29.68,29.59,28,26,0,0.00
2013-2-23,55,55,55,49,49,49,78,78,78,29.94,29.94,16,16,0,0.00
2013-2-24,64,62,61,55,54,52,80,73,64,29.88,29.80,22,19,0,0.00
2013-2-25,61,56,48,55,47,41,80,70,68,30.00,29.94,23,17,0,0.00
2013-2-26,50,50,50,43,43,43,76,76,76,30.00,29.97,11,-393,0,0.00
2013-2-28,64,59,54,62,51,43,90,76,67,30.12,30.00,10,9,0,0.00
2013-3-1,63,58,57,50,48,47,69,68,63,30.03,30.00,10,9,0,0.00
2013-3-2,64,61,57,55,52,47,72,71,69,29.88,29.80,22,19,0,0.00
2013-3-3,68,64,61,65,59,51,91,82,71,29.80,29.68,22,18,0,0.00
2013-3-4,61,61,61,55,55,55,80,80,80,30.03,29.88,22,15,0,0.00
2013-3-5,63,62,61,51,50,50,71,67,63,30.03,30.03,17,16,0,0.00
2013-3-6,63,63,63,57,54,53,80,74,71,30.18,30.12,22,17,0,0.00
2013-3-7,57,57,57,47,47,47,69,69,69,30.09,30.09,21,21,0,0.00
2013-3-8,82,70,59,64,58,53,80,66,53,29.88,29.71,21,16,0,0.00
2013-3-9,68,63,59,62,57,55,89,83,72,29.91,29.88,22,14,0,0.00
2013-3-10,72,70,61,63,62,58,90,77,75,29.91,29.85,16,15,0,0.00
2013-3-13,50,50,50,47,47,47,87,87,87,29.41,29.41,10,10,0,0.00
2013-3-14,59,57,55,53,48,45,80,73,68,29.32,29.26,28,16,0,0.00
2013-3-15,52,50,48,43,42,41,76,75,66,29.59,29.50,28,28,0,0.00
2013-3-16,54,48,46,47,41,39,78,75,74,30.06,29.83,15,15,0,0.00
2013-3-17,59,54,50,53,47,43,80,78,76,30.09,29.97,11,9,0,0.00
2013-3-18,64,62,59,56,55,53,89,79,72,30.00,29.85,14,12,0,0.00
2013-3-19,61,60,59,58,56,53,90,86,80,29.80,29.77,18,15,0,0.00
2013-3-20,64,61,59,55,54,53,80,77,72,29.71,29.65,22,18,0,0.00
2013-3-21,70,66,61,55,53,51,80,66,52,29.80,29.65,30,30,0,0.00
2013-3-22,55,55,55,49,46,45,78,71,68,29.88,29.88,20,18,0,0.00
2013-3-23,61,57,55,55,53,52,88,85,80,29.88,29.88,15,9,0,0.00
2013-3-24,66,64,61,55,54,54,80,71,65,29.62,29.41,28,25,0,0.00
2013-3-25,70,64,61,62,60,58,90,87,74,29.74,29.59,15,12,0,0.00
2013-3-26,72,72,72,60,60,60,67,67,67,29.68,29.68,5,5,0,0.00
2013-3-27,88,88,88,67,67,67,50,50,50,29.68,29.68,7,7,0,0.00
2013-3-28,59,59,59,49,49,49,70,70,70,29.74,29.74,3,3,0,0.00
2013-3-29,70,62,57,58,54,51,79,74,66,29.83,29.80,15,11,0,0.00
2013-3-30,68,65,61,57,54,51,80,68,56,29.74,29.59,29,19,0,0.00
2013-4-2,61,61,59,55,55,53,80,80,80,29.71,29.59,15,13,0,0.00
2013-4-3,63,62,59,53,53,53,80,72,71,29.77,29.71,32,29,0,0.00
2013-4-4,64,62,61,58,56,55,90,81,72,29.91,29.85,34,28,0,0.00
2013-4-8,70,68,68,62,55,53,74,62,58,29.77,29.71,25,22,0,0.00
2013-4-9,72,66,61,58,55,54,90,69,53,30.74,29.72,25,19,0,0.00
2013-4-10,73,73,73,59,59,59,61,61,61,29.94,29.94,11,11,0,0.00
2013-4-12,63,61,59,56,54,53,89,80,71,29.85,29.83,21,18,0,0.00
2013-4-13,59,59,59,53,53,53,80,80,80,29.97,29.97,10,10,0,0.00
2013-4-14,55,55,55,49,49,49,78,78,78,30.24,30.24,6,6,0,0.00
2013-4-16,64,64,63,57,52,48,80,67,56,30.15,30.12,15,11,0,0.00
2013-4-17,59,59,59,53,53,53,80,80,80,30.09,30.09,15,15,0,0.00
2013-4-18,73,63,57,59,56,54,89,80,61,30.06,30.03,15,12,0,0.00
2013-4-19,59,59,59,53,53,53,80,80,80,30.00,30.00,3,3,0,0.00
2013-4-20,72,65,64,60,59,59,81,79,67,30.06,30.02,10,10,0,0.00
2013-4-22,64,64,64,59,59,59,81,81,81,29.91,29.91,22,22,0,0.00
2013-4-25,61,61,61,55,55,55,80,80,80,30.15,30.15,16,16,0,0.00
2013-4-26,64,64,64,55,55,55,72,72,72,30.06,30.06,6,6,0,0.00
2013-4-27,59,59,59,56,56,56,89,89,89,29.74,29.74,8,8,0,0.00
2013-4-29,66,62,59,57,56,56,89,82,73,29.74,29.71,31,18,0,0.00
2013-4-30,68,66,63,60,57,56,90,74,66,29.88,29.85,32,24,0,0.00
2013-5-2,64,64,64,62,62,62,90,90,90,29.94,29.94,9,9,0,0.00
2013-5-3,70,68,68,62,62,62,82,81,77,29.83,29.80,15,14,0,0.00
2013-5-4,72,72,72,60,60,60,67,67,67,29.80,29.80,23,23,0,0.00
2013-5-6,70,70,70,64,64,64,82,82,82,29.85,29.85,7,7,0,0.00
2013-5-7,66,66,66,57,57,57,73,73,73,30.00,30.00,15,15,0,0.00
2013-5-8,73,68,64,65,62,59,81,78,75,29.97,29.97,15,12,0,0.00
2013-5-9,68,68,68,60,59,56,74,72,66,29.94,29.94,7,6,0,0.00
2013-5-10,66,65,64,63,61,59,91,85,81,29.94,29.94,22,22,0,0.00
2013-5-11,66,38,66,63,-7,-100,91,52,91,30.12,30.12,34,24,0,0.00
2013-5-13,61,61,61,58,58,58,90,90,90,30.30,30.27,23,21,0,0.00
2013-5-14,68,65,63,60,-13,-100,90,49,90,30.47,30.45,28,25,0,0.00
2013-5-15,68,63,61,65,-59,-100,91,23,91,30.47,30.47,22,17,0,0.00
2013-5-16,68,65,64,62,8,-100,90,60,90,30.42,30.39,15,12,0,0.00
2013-5-17,66,65,64,63,-18,-100,91,46,91,30.30,30.21,28,25,0,0.00
2013-5-18,68,67,66,65,63,62,91,89,82,30.09,30.00,34,31,0,0.00
2013-5-19,59,58,57,56,54,51,89,85,79,30.12,30.12,28,26,0,0.00
2013-5-31,61,61,61,58,58,58,90,90,90,29.94,29.94,22,22,0,0.00
2013-6-2,55,55,55,52,52,52,88,88,88,29.80,29.80,28,28,0,0.00
2013-6-5,55,55,55,52,52,52,88,88,88,30.09,30.09,18,18,0,0.00
2013-6-7,61,61,61,55,55,55,80,80,80,30.00,30.00,21,21,0,0.00
2013-6-18,57,57,57,54,54,54,89,89,89,29.72,29.72,24,24,0,0.00
2013-7-8,82,82,82,78,78,78,85,85,85,29.91,29.91,17,17,0,0.00
2013-7-12,82,82,82,75,75,75,78,78,78,29.91,29.91,14,14,0,0.00
2013-7-13,86,86,86,76,76,76,72,72,72,29.88,29.88,13,13,0,0.00
2013-8-6,84,84,84,74,74,74,72,72,72,30.00,30.00,17,17,0,0.00
2013-8-7,95,89,84,83,80,78,85,77,69,29.97,29.91,15,11,0,0.00
2013-8-8,95,90,82,81,80,77,85,70,63,29.93,29.91,10,4,0,0.00
2013-8-9,90,87,84,80,80,79,85,79,73,29.93,29.88,6,6,0,0.00
2013-8-10,88,84,82,78,78,78,85,80,73,30.03,29.97,10,9,0,0.00
2013-8-11,86,85,84,77,77,76,78,76,72,33.11,30.06,6,-664,0,0.00
2013-8-12,84,84,84,79,79,79,85,85,85,30.05,30.05,17,17,0,0.00
2013-8-13,82,82,82,75,75,75,78,78,78,29.98,29.98,17,17,0,0.00
2013-8-14,84,83,82,79,79,78,85,85,85,29.94,29.93,17,14,0,0.00
2013-8-15,82,63,81,80,38,-100,92,69,85,29.94,29.91,21,11,0,0.00
2013-8-16,88,86,82,76,76,75,78,71,67,29.93,29.91,6,6,0,0.00
2013-8-17,88,86,84,74,73,72,72,66,61,29.93,29.91,16,12,0,0.00
2013-8-21,84,83,82,78,78,77,85,83,78,29.97,29.94,15,11,0,0.00
2013-8-22,84,83,82,79,78,78,85,85,85,29.94,29.91,10,8,0,0.00
2013-8-23,82,81,79,75,75,74,84,80,78,29.85,29.85,22,21,0,0.00
2013-8-24,82,82,82,78,76,75,85,82,78,29.88,29.87,28,20,0,0.00
2013-9-6,86,86,86,79,79,79,79,79,79,29.91,29.91,11,11,0,0.00
2013-9-7,86,84,81,79,77,73,79,78,77,29.93,29.91,11,10,0,0.00
2013-9-8,86,84,82,79,77,75,85,80,78,29.94,29.91,11,8,0,0.00
2013-9-9,82,82,81,75,74,70,78,76,71,29.94,29.93,20,13,0,0.00
2013-9-10,81,81,81,76,74,73,85,80,77,30.74,29.99,13,12,0,0.00
2013-9-13,88,88,88,81,81,81,79,79,79,29.78,29.78,15,15,0,0.00
2013-9-14,84,84,84,79,79,79,85,85,85,29.84,29.84,10,10,0,0.00
2013-9-15,82,82,82,78,76,75,85,82,78,29.90,29.88,17,13,0,0.00
2013-9-19,82,82,82,78,78,78,85,85,85,29.90,29.90,17,17,0,0.00
2013-9-20,84,84,84,79,76,74,85,78,72,29.84,29.81,14,14,0,0.00
2013-9-23,81,81,81,76,76,76,85,85,85,30.03,30.03,17,17,0,0.00
2013-9-24,84,84,84,79,79,79,85,85,85,29.75,29.75,8,8,0,0.00
2013-9-25,82,82,82,78,78,78,85,85,85,29.80,29.80,11,11,0,0.00
2013-10-4,81,80,79,76,74,71,85,81,77,29.91,29.90,14,10,0,0.00
2013-10-7,72,72,72,54,54,54,53,53,53,29.99,29.99,16,16,0,0.00
2013-10-8,75,75,75,58,58,58,55,55,55,30.03,30.03,14,14,0,0.00
2013-10-9,72,72,72,63,63,63,75,75,75,30.00,30.00,6,6,0,0.00
2013-10-10,77,76,75,70,69,69,83,79,77,30.00,29.94,15,12,0,0.00
2013-10-11,81,78,77,76,70,66,85,75,69,29.97,29.94,14,12,0,0.00
2013-10-12,81,81,81,76,76,76,85,85,85,29.95,29.95,16,16,0,0.00
2013-10-14,79,79,79,71,71,71,77,77,77,29.98,29.98,10,10,0,0.00
2013-10-15,86,82,79,74,73,71,84,76,66,29.98,29.92,11,10,0,0.00
2013-10-18,72,72,72,63,63,63,75,75,75,29.88,29.88,17,17,0,0.00
2013-10-21,73,72,72,66,66,65,83,79,75,29.85,29.85,16,12,0,0.00
2013-10-25,70,70,70,58,58,58,66,66,66,30.20,30.20,15,15,0,0.00
2013-10-26,68,68,68,60,60,60,74,74,74,30.17,30.17,15,15,0,0.00
2013-10-27,75,75,75,67,67,67,76,76,76,30.03,29.98,13,10,0,0.00
2013-10-29,75,74,72,70,66,63,83,79,75,30.09,30.06,13,6,0,0.00
2013-11-1,68,68,68,60,60,60,74,74,74,29.83,29.83,6,6,0,0.00
2013-11-6,79,79,79,76,73,71,92,83,77,29.89,29.88,28,27,0,0.00
2013-11-7,82,82,82,78,78,78,85,85,85,29.80,29.80,14,14,0,0.00
2013-11-17,82,82,81,78,78,78,92,88,85,29.93,29.91,10,10,0,0.00
2013-11-18,77,77,77,72,72,72,84,84,84,29.94,29.94,5,5,0,0.00
2013-11-19,63,63,63,46,46,46,54,54,54,30.01,30.01,17,17,0,0.00
2013-11-20,72,72,72,60,60,60,67,67,67,29.88,29.88,17,17,0,0.00
2013-11-21,77,74,72,72,70,69,91,88,84,29.97,29.91,20,16,0,0.00
2013-11-23,61,59,57,55,54,54,89,84,80,30.17,30.09,37,33,0,0.00
2013-11-24,54,54,54,47,47,47,78,78,78,30.20,30.18,34,33,0,0.00
2013-12-4,72,70,66,72,69,61,100,96,82,29.65,29.62,23,14,0,0.00
2013-12-5,68,68,68,68,66,65,100,96,91,29.80,29.80,11,10,0,0.00
2013-12-8,70,70,70,67,67,67,91,91,91,29.97,29.97,11,11,0,0.00
2013-12-9,70,70,70,67,67,67,91,91,91,30.00,30.00,8,8,0,0.00
2013-12-10,52,52,52,49,49,49,88,88,88,30.06,30.06,24,24,0,0.00
2013-12-14,81,79,77,76,74,72,85,84,84,29.85,29.85,25,20,0,0.00
2013-12-15,77,77,77,72,72,72,84,84,84,0.00,40.00,15,15,0,0.00
2013-12-16,72,69,66,57,56,54,65,62,60,30.09,29.97,11,8,0,0.00
2013-12-17,63,63,63,53,53,53,71,71,71,30.12,30.12,7,7,0,0.00
2013-12-18,57,54,52,43,40,36,59,57,55,29.94,29.94,34,32,0,0.00
2013-12-19,52,48,48,32,32,32,52,52,52,30.18,30.06,34,23,0,0.00
2013-12-20,36,36,36,31,31,31,84,84,84,29.94,29.94,31,31,0,0.00
2013-12-21,36,36,36,31,31,31,84,84,84,29.94,29.94,31,31,0,0.00
2013-12-23,66,66,66,63,63,63,91,91,91,30.00,30.00,25,25,0,0.00
2013-12-24,68,67,66,63,62,62,91,86,82,30.00,29.97,29,27,0,0.00
2013-12-25,66,66,66,57,57,57,73,73,73,30.18,30.18,23,23,0,0.00
2013-12-26,75,66,66,57,57,57,73,73,73,30.18,30.12,23,23,0,0.00